Time;durP1;ratioP1;P1;durP2;ratioP2;P2;SDS_P1;SDS_P2;PMS_P1;PMS_P2;Temp;Humidity;BMP_temperature;BMP_pressure;BME280_temperature;BME280_humidity;BME280_pressure;Samples;Min_cycle;Max_cycle;Signal;HPM_P1;HPM_P2
2021/01/24 00:02:18;;;;;;;19.25;13.73;;;3.70;99.90;;;;;;5018229;28;20386;-59
2021/01/24 00:04:44;;;;;;;21.05;14.50;;;3.70;99.90;;;;;;5019784;28;20026;-64
2021/01/24 00:07:10;;;;;;;21.27;13.95;;;3.70;99.90;;;;;;5024466;28;20073;-62
2021/01/24 00:09:36;;;;;;;21.33;14.27;;;3.70;99.90;;;;;;5027362;28;20105;-61
2021/01/24 00:12:02;;;;;;;22.77;14.52;;;3.60;99.90;;;;;;5029128;28;20021;-63
2021/01/24 00:14:28;;;;;;;19.40;13.60;;;3.70;99.90;;;;;;5009867;28;20025;-62
2021/01/24 00:16:54;;;;;;;22.23;14.35;;;3.60;99.90;;;;;;5030389;28;20345;-60
2021/01/24 00:19:19;;;;;;;19.17;13.82;;;3.70;99.90;;;;;;5011110;28;20525;-64
2021/01/24 00:21:45;;;;;;;20.60;14.15;;;3.90;99.90;;;;;;5001793;28;20365;-61
2021/01/24 00:24:11;;;;;;;17.20;12.63;;;3.80;99.90;;;;;;5019431;28;20503;-67
2021/01/24 00:26:37;;;;;;;21.95;14.43;;;3.80;99.90;;;;;;5020824;28;20033;-60
2021/01/24 00:29:03;;;;;;;20.40;14.40;;;3.90;99.90;;;;;;5017795;28;20030;-67
2021/01/24 00:31:29;;;;;;;20.33;13.88;;;3.80;99.90;;;;;;5016160;28;20030;-59
2021/01/24 00:33:54;;;;;;;20.48;13.45;;;3.70;99.90;;;;;;4998607;28;20117;-59
2021/01/24 00:36:20;;;;;;;17.50;13.02;;;3.70;99.90;;;;;;5015385;28;20615;-66
2021/01/24 00:38:47;;;;;;;17.35;12.18;;;3.70;99.90;;;;;;4998784;28;20070;-60
2021/01/24 00:41:13;;;;;;;19.55;12.90;;;3.70;99.90;;;;;;4998084;28;20033;-58
2021/01/24 00:43:39;;;;;;;15.95;10.82;;;3.80;99.90;;;;;;4998935;28;20034;-59
2021/01/24 00:46:04;;;;;;;15.55;10.55;;;3.70;99.90;;;;;;4998661;28;20022;-65
2021/01/24 00:48:35;;;;;;;15.95;11.45;;;3.70;99.90;;;;;;4999027;28;20088;-61
2021/01/24 00:51:05;;;;;;;14.35;11.00;;;3.60;99.90;;;;;;5015893;28;20025;-65
2021/01/24 00:53:30;;;;;;;16.02;10.90;;;3.70;99.90;;;;;;5016011;28;20025;-64
2021/01/24 00:55:56;;;;;;;16.40;10.35;;;3.70;99.90;;;;;;5015350;28;20036;-59
2021/01/24 00:58:22;;;;;;;14.90;10.43;;;3.60;99.90;;;;;;5015046;28;20604;-60
2021/01/24 01:00:48;;;;;;;12.55;8.80;;;3.70;99.90;;;;;;5015512;28;20026;-61
2021/01/24 01:03:14;;;;;;;13.43;10.60;;;3.70;99.90;;;;;;5014920;28;20113;-59
2021/01/24 01:05:40;;;;;;;11.20;8.13;;;3.70;99.90;;;;;;5015376;28;20396;-61
2021/01/24 01:08:06;;;;;;;12.85;9.50;;;3.70;99.90;;;;;;4997069;28;20133;-66
2021/01/24 01:10:35;;;;;;;11.55;8.27;;;3.70;99.90;;;;;;5014624;28;20049;-59
2021/01/24 01:13:00;;;;;;;9.32;6.63;;;3.70;99.90;;;;;;5014854;28;20030;-60
2021/01/24 01:15:27;;;;;;;8.68;7.00;;;3.80;99.90;;;;;;5015083;28;20067;-59
2021/01/24 01:17:52;;;;;;;8.48;6.50;;;3.80;99.90;;;;;;5015514;28;20021;-58
2021/01/24 01:20:18;;;;;;;10.75;6.68;;;3.80;99.90;;;;;;4981052;28;20523;-60
2021/01/24 01:22:45;;;;;;;6.80;4.80;;;3.80;99.90;;;;;;5015659;28;20467;-63
2021/01/24 01:25:10;;;;;;;4.72;4.10;;;3.90;99.90;;;;;;4997788;28;20044;-65
2021/01/24 01:27:40;;;;;;;7.50;3.75;;;3.90;99.90;;;;;;5015525;28;20609;-62
2021/01/24 01:30:07;;;;;;;4.05;3.65;;;3.90;99.90;;;;;;4998074;28;20037;-67
2021/01/24 01:32:37;;;;;;;3.58;2.88;;;4.10;99.90;;;;;;5015425;28;20380;-61
2021/01/24 01:35:04;;;;;;;7.95;3.40;;;4.10;99.90;;;;;;4997625;28;20141;-65
2021/01/24 01:37:31;;;;;;;3.58;2.65;;;4.10;99.90;;;;;;5015732;28;20482;-60
2021/01/24 01:39:56;;;;;;;3.47;2.50;;;4.10;99.90;;;;;;5016175;28;20030;-62
2021/01/24 01:42:22;;;;;;;3.72;2.38;;;3.90;99.90;;;;;;4998153;28;20030;-60
2021/01/24 01:44:48;;;;;;;2.75;2.00;;;3.80;99.90;;;;;;4998641;28;20022;-59
2021/01/24 01:47:21;;;;;;;1.65;1.55;;;3.70;99.90;;;;;;5014808;28;20034;-59
2021/01/24 01:49:48;;;;;;;2.17;1.80;;;3.70;99.90;;;;;;5015808;28;20041;-60
2021/01/24 01:52:14;;;;;;;2.13;1.65;;;3.70;99.90;;;;;;5016489;28;20034;-59
2021/01/24 01:54:43;;;;;;;3.70;1.70;;;3.80;99.90;;;;;;4998896;28;20022;-59
2021/01/24 01:57:09;;;;;;;1.17;0.82;;;3.80;99.90;;;;;;5014589;28;20052;-60
2021/01/24 01:59:37;;;;;;;0.88;0.77;;;3.80;99.90;;;;;;5014987;28;20475;-58
2021/01/24 02:02:19;;;;;;;1.88;0.52;;;3.70;99.90;;;;;;5015016;28;20030;-59
2021/01/24 02:04:55;;;;;;;1.00;0.60;;;3.70;99.90;;;;;;4997259;28;20030;-62
2021/01/24 02:08:09;;;;;;;0.82;0.60;;;3.70;99.90;;;;;;5013991;28;20058;-60
2021/01/24 02:11:08;;;;;;;0.70;0.45;;;3.80;99.90;;;;;;4937669;29;20051;-63
2021/01/24 02:13:46;;;;;;;0.70;0.30;;;3.60;99.90;;;;;;4984929;28;20038;-65
2021/01/24 02:16:14;;;;;;;0.30;0.30;;;3.40;99.90;;;;;;5013432;28;20030;-60
2021/01/24 02:18:44;;;;;;;0.30;0.20;;;3.20;99.90;;;;;;5013743;28;20030;-59
2021/01/24 02:21:16;;;;;;;0.50;0.30;;;3.10;99.90;;;;;;4995416;28;20026;-59
2021/01/24 02:23:43;;;;;;;0.38;0.20;;;3.10;99.90;;;;;;5014193;28;20411;-59
2021/01/24 02:26:20;;;;;;;0.30;0.10;;;3.00;99.90;;;;;;4995221;28;20033;-66
2021/01/24 02:29:06;;;;;;;0.35;0.30;;;3.00;99.90;;;;;;5013903;28;20041;-59
2021/01/24 02:31:33;;;;;;;0.20;0.10;;;2.80;99.90;;;;;;4996004;28;20482;-59
2021/01/24 02:34:00;;;;;;;0.10;0.10;;;2.70;99.90;;;;;;5013862;28;20349;-58
2021/01/24 02:36:27;;;;;;;0.45;0.20;;;2.80;99.90;;;;;;4995378;28;20048;-59
2021/01/24 02:38:54;;;;;;;1.40;0.10;;;2.90;99.90;;;;;;5013345;28;20041;-58
2021/01/24 02:41:20;;;;;;;0.10;0.10;;;2.80;99.90;;;;;;5012464;28;20467;-59
2021/01/24 02:43:48;;;;;;;0.10;0.00;;;2.90;99.90;;;;;;5014131;28;20025;-59
2021/01/24 02:46:16;;;;;;;1.45;0.20;;;2.90;99.90;;;;;;4995708;28;20041;-59
2021/01/24 02:48:46;;;;;;;0.30;0.30;;;2.70;99.90;;;;;;4996488;28;20044;-60
2021/01/24 02:51:14;;;;;;;0.13;0.10;;;2.70;99.90;;;;;;4995320;28;20033;-64
2021/01/24 02:53:40;;;;;;;1.08;0.40;;;2.80;99.90;;;;;;4994994;28;20034;-59
2021/01/24 02:56:07;;;;;;;0.10;0.10;;;2.70;99.90;;;;;;4995460;28;20099;-59
2021/01/24 02:58:34;;;;;;;0.52;0.50;;;2.70;99.90;;;;;;4985494;28;20046;-59
2021/01/24 03:00:59;;;;;;;0.22;0.20;;;2.60;99.90;;;;;;4992509;28;20065;-58
2021/01/24 03:03:25;;;;;;;0.40;0.38;;;2.50;99.90;;;;;;4976040;28;20026;-58
2021/01/24 03:05:51;;;;;;;0.60;0.32;;;2.30;99.90;;;;;;4977093;28;20026;-59
2021/01/24 03:08:19;;;;;;;0.60;0.40;;;2.30;99.90;;;;;;4997642;28;20058;-59
2021/01/24 03:10:46;;;;;;;1.08;0.57;;;2.40;99.90;;;;;;4993205;28;20050;-62
2021/01/24 03:13:21;;;;;;;0.75;0.55;;;2.50;99.90;;;;;;4976698;28;20030;-64
2021/01/24 03:15:48;;;;;;;1.00;0.70;;;2.30;99.90;;;;;;4993570;28;20144;-58
2021/01/24 03:18:21;;;;;;;1.15;0.70;;;2.40;99.90;;;;;;4993220;28;20041;-59
2021/01/24 03:20:50;;;;;;;1.20;1.08;;;2.20;99.90;;;;;;4993548;28;20034;-59
2021/01/24 03:23:20;;;;;;;1.75;0.80;;;2.20;99.90;;;;;;4975332;28;20074;-59
2021/01/24 03:25:46;;;;;;;2.38;1.10;;;2.30;99.90;;;;;;4991498;28;20027;-60
2021/01/24 03:28:13;;;;;;;0.88;0.82;;;2.30;99.90;;;;;;4982639;28;20025;-64
2021/01/24 03:30:39;;;;;;;0.80;0.65;;;2.30;99.90;;;;;;5027629;28;20041;-59
2021/01/24 03:33:05;;;;;;;1.50;1.17;;;2.30;99.90;;;;;;5012535;28;20084;-60
2021/01/24 03:35:31;;;;;;;0.98;0.88;;;2.30;99.90;;;;;;5010778;28;20148;-59
2021/01/24 03:37:57;;;;;;;1.30;0.90;;;2.40;99.90;;;;;;5013070;28;20038;-59
2021/01/24 03:40:23;;;;;;;1.48;1.38;;;2.40;99.90;;;;;;4994688;28;20030;-62
2021/01/24 03:42:49;;;;;;;1.63;1.23;;;2.40;99.90;;;;;;5011739;28;20472;-59
2021/01/24 03:45:15;;;;;;;1.15;1.05;;;2.30;99.90;;;;;;4994353;28;20030;-60
2021/01/24 03:47:41;;;;;;;2.45;1.20;;;2.20;99.90;;;;;;5013143;28;20034;-59
2021/01/24 03:50:07;;;;;;;1.42;1.33;;;2.30;99.90;;;;;;5012429;28;20048;-59
2021/01/24 03:52:33;;;;;;;5.38;1.55;;;2.50;99.90;;;;;;5011887;28;20026;-59
2021/01/24 03:54:59;;;;;;;2.10;1.90;;;2.50;99.90;;;;;;5012641;28;20485;-59
2021/01/24 03:57:26;;;;;;;1.33;1.23;;;2.50;99.90;;;;;;5010802;28;20033;-61
2021/01/24 03:59:54;;;;;;;3.80;1.50;;;2.50;99.90;;;;;;4993196;28;20045;-58
2021/01/24 04:02:20;;;;;;;2.33;1.92;;;2.60;99.90;;;;;;4993340;28;20560;-58
2021/01/24 04:04:46;;;;;;;1.77;1.38;;;2.50;99.90;;;;;;4997061;28;20026;-60
2021/01/24 04:07:13;;;;;;;1.40;1.30;;;2.60;99.90;;;;;;4997206;28;20034;-65
2021/01/24 04:09:39;;;;;;;1.92;1.50;;;2.60;99.90;;;;;;4996609;28;20030;-60
2021/01/24 04:12:05;;;;;;;2.00;1.50;;;2.70;99.90;;;;;;4996470;28;20037;-60
2021/01/24 04:14:31;;;;;;;1.63;1.50;;;2.70;99.90;;;;;;4994876;28;20109;-58
2021/01/24 04:16:56;;;;;;;1.10;1.00;;;2.80;99.90;;;;;;4996520;28;20053;-61
2021/01/24 04:19:22;;;;;;;1.27;1.17;;;2.80;99.90;;;;;;4994964;28;20041;-59
2021/01/24 04:21:48;;;;;;;2.33;0.95;;;2.80;99.90;;;;;;4997059;28;20022;-58
2021/01/24 04:24:14;;;;;;;0.75;0.73;;;2.90;99.90;;;;;;4996761;28;20026;-66
2021/01/24 04:26:39;;;;;;;1.45;0.90;;;2.80;99.90;;;;;;4978928;28;20026;-58
2021/01/24 04:29:05;;;;;;;1.05;0.80;;;2.80;99.90;;;;;;5010776;28;20033;-61
2021/01/24 04:31:30;;;;;;;0.82;0.43;;;2.80;99.90;;;;;;5015587;28;20150;-59
2021/01/24 04:33:56;;;;;;;0.40;0.30;;;2.80;99.90;;;;;;5016143;28;20498;-58
2021/01/24 04:36:22;;;;;;;0.60;0.38;;;2.80;99.90;;;;;;4998272;28;20124;-60
2021/01/24 04:38:47;;;;;;;0.60;0.60;;;2.80;99.90;;;;;;4998888;28;20535;-59
2021/01/24 04:41:13;;;;;;;0.95;0.30;;;2.80;99.90;;;;;;4998538;28;20499;-63
2021/01/24 04:43:40;;;;;;;0.43;0.22;;;2.80;99.90;;;;;;5016762;28;20057;-60
2021/01/24 04:46:07;;;;;;;0.40;0.22;;;2.80;99.90;;;;;;5000399;28;20117;-66
2021/01/24 04:48:33;;;;;;;0.50;0.25;;;2.90;99.90;;;;;;5017318;28;20526;-60
2021/01/24 04:50:59;;;;;;;0.17;0.10;;;2.70;99.90;;;;;;5018076;28;20034;-60
2021/01/24 04:53:28;;;;;;;0.22;0.13;;;2.70;99.90;;;;;;4999999;28;20415;-63
2021/01/24 04:55:54;;;;;;;0.32;0.13;;;2.70;99.90;;;;;;5000798;28;20026;-68
2021/01/24 04:58:20;;;;;;;0.65;0.38;;;2.70;99.90;;;;;;4990912;28;20026;-60
2021/01/24 05:00:46;;;;;;;1.75;0.30;;;2.60;99.90;;;;;;4997320;28;20110;-59
2021/01/24 05:03:12;;;;;;;0.30;0.20;;;2.60;99.90;;;;;;4997743;28;20066;-60
2021/01/24 05:05:38;;;;;;;0.30;0.20;;;2.50;99.90;;;;;;4996118;28;20037;-60
2021/01/24 05:08:06;;;;;;;1.30;0.40;;;2.60;99.90;;;;;;4998682;28;20050;-60
2021/01/24 05:10:33;;;;;;;0.82;0.32;;;2.50;99.90;;;;;;4980215;28;20030;-60
2021/01/24 05:12:58;;;;;;;0.70;0.40;;;2.60;99.90;;;;;;4981139;28;20034;-59
2021/01/24 05:15:26;;;;;;;1.48;0.50;;;2.60;99.90;;;;;;4995506;28;20097;-60
2021/01/24 05:17:59;;;;;;;0.50;0.20;;;2.50;99.90;;;;;;4996923;28;20026;-62
2021/01/24 05:20:27;;;;;;;0.60;0.52;;;2.50;99.90;;;;;;4996199;28;20069;-59
2021/01/24 05:22:58;;;;;;;0.75;0.55;;;2.40;99.90;;;;;;4997384;28;20023;-59
2021/01/24 05:25:28;;;;;;;0.60;0.40;;;2.40;99.90;;;;;;4995645;28;20085;-58
2021/01/24 05:27:54;;;;;;;0.80;0.60;;;2.50;99.90;;;;;;4995702;28;20081;-60
2021/01/24 05:30:22;;;;;;;0.65;0.47;;;2.50;99.90;;;;;;4980143;28;20125;-65
2021/01/24 05:32:48;;;;;;;0.80;0.60;;;2.40;99.90;;;;;;4997452;28;20096;-58
2021/01/24 05:35:16;;;;;;;1.30;0.98;;;2.40;99.90;;;;;;4979920;28;20038;-63
2021/01/24 05:37:45;;;;;;;1.40;0.60;;;2.40;99.90;;;;;;4981207;28;20034;-62
2021/01/24 05:40:11;;;;;;;3.13;1.08;;;2.50;99.90;;;;;;4981338;28;20034;-58
2021/01/24 05:42:38;;;;;;;0.98;0.90;;;2.50;99.90;;;;;;4997868;28;20189;-59
2021/01/24 05:45:15;;;;;;;0.98;0.60;;;2.50;99.90;;;;;;4981769;28;20472;-63
2021/01/24 05:47:47;;;;;;;1.08;0.80;;;2.50;99.90;;;;;;4996864;28;20030;-60
2021/01/24 05:50:23;;;;;;;1.30;0.82;;;2.50;99.90;;;;;;4998443;28;20118;-59
2021/01/24 05:52:50;;;;;;;1.65;1.27;;;2.50;99.90;;;;;;4998175;28;20031;-60
2021/01/24 05:55:35;;;;;;;2.15;1.45;;;2.40;99.90;;;;;;4997692;28;20023;-61
2021/01/24 05:58:24;;;;;;;1.60;1.20;;;2.50;99.90;;;;;;4985953;28;20029;-58
2021/01/24 06:00:53;;;;;;;2.70;1.27;;;2.50;99.90;;;;;;5010276;28;20066;-61
2021/01/24 06:03:20;;;;;;;2.15;1.30;;;2.40;99.90;;;;;;5017045;28;20032;-68
2021/01/24 06:05:46;;;;;;;3.08;1.88;;;2.30;99.90;;;;;;4998759;28;20030;-59
2021/01/24 06:08:16;;;;;;;2.90;1.55;;;2.30;99.90;;;;;;4998918;28;20120;-61
2021/01/24 06:10:43;;;;;;;2.40;2.20;;;2.30;99.90;;;;;;4998125;28;20065;-64
2021/01/24 06:13:14;;;;;;;2.85;1.88;;;2.30;99.90;;;;;;5017065;28;20025;-59
2021/01/24 06:15:42;;;;;;;4.25;2.92;;;2.20;99.90;;;;;;5015787;28;20160;-62
2021/01/24 06:18:14;;;;;;;4.80;2.42;;;2.20;99.90;;;;;;5016317;28;20054;-59
2021/01/24 06:20:45;;;;;;;3.90;2.53;;;2.20;99.90;;;;;;4997677;28;20097;-63
2021/01/24 06:23:14;;;;;;;3.47;2.17;;;2.10;99.90;;;;;;4998131;28;20038;-58
2021/01/24 06:25:45;;;;;;;6.57;2.70;;;2.20;99.90;;;;;;4996029;28;20033;-59
2021/01/24 06:28:28;;;;;;;3.47;2.70;;;2.20;99.90;;;;;;4996981;28;20080;-60
2021/01/24 06:30:54;;;;;;;5.93;2.50;;;2.20;99.90;;;;;;4996947;28;20535;-60
2021/01/24 06:33:23;;;;;;;5.13;2.92;;;2.10;99.90;;;;;;5014370;28;20026;-65
2021/01/24 06:36:07;;;;;;;4.55;3.13;;;2.00;99.90;;;;;;5013937;28;20475;-59
2021/01/24 06:38:38;;;;;;;4.45;3.53;;;2.00;99.90;;;;;;4996883;28;20073;-60
2021/01/24 06:41:06;;;;;;;4.75;3.35;;;2.10;99.90;;;;;;4997518;28;20022;-59
2021/01/24 06:43:46;;;;;;;4.28;2.97;;;2.10;99.90;;;;;;5013311;28;20097;-60
2021/01/24 06:46:21;;;;;;;5.10;3.92;;;2.10;99.90;;;;;;5013957;28;20037;-59
2021/01/24 06:48:52;;;;;;;4.40;3.10;;;2.00;99.90;;;;;;4995571;28;20026;-60
2021/01/24 06:51:33;;;;;;;4.55;3.30;;;2.10;99.90;;;;;;5013715;28;20029;-62
2021/01/24 06:54:04;;;;;;;8.18;3.83;;;2.10;99.90;;;;;;5013948;28;20069;-58
2021/01/24 06:56:41;;;;;;;5.88;3.38;;;2.10;99.90;;;;;;5012534;28;20499;-58
2021/01/24 06:59:11;;;;;;;6.88;3.30;;;2.10;99.90;;;;;;4995882;28;20085;-57
2021/01/24 07:01:38;;;;;;;5.05;3.60;;;2.10;99.90;;;;;;4979805;28;20539;-59
2021/01/24 07:04:28;;;;;;;4.20;3.22;;;2.10;99.90;;;;;;5013837;28;20460;-59
2021/01/24 07:06:54;;;;;;;5.10;3.10;;;2.20;99.90;;;;;;5014525;28;20026;-59
2021/01/24 07:09:26;;;;;;;4.80;3.50;;;2.30;99.90;;;;;;4996796;28;20053;-58
2021/01/24 07:12:00;;;;;;;5.43;2.78;;;2.20;99.90;;;;;;5013741;28;20049;-58
2021/01/24 07:14:34;;;;;;;4.90;3.63;;;2.20;99.90;;;;;;4996043;28;20026;-64
2021/01/24 07:17:07;;;;;;;6.68;4.13;;;2.20;99.90;;;;;;4997382;28;20084;-59
2021/01/24 07:19:37;;;;;;;11.05;5.85;;;2.10;99.90;;;;;;4996004;28;20471;-60
2021/01/24 07:22:05;;;;;;;5.35;4.18;;;2.10;99.90;;;;;;4996377;28;20022;-58
2021/01/24 07:24:33;;;;;;;5.18;3.75;;;2.10;99.90;;;;;;4995950;28;20026;-60
2021/01/24 07:27:00;;;;;;;6.60;3.92;;;2.10;99.90;;;;;;4996278;28;20018;-59
2021/01/24 07:29:27;;;;;;;6.18;4.00;;;2.10;99.90;;;;;;4997095;28;20038;-66
2021/01/24 07:31:52;;;;;;;5.32;3.70;;;2.20;99.90;;;;;;4995467;28;20078;-58
2021/01/24 07:34:23;;;;;;;6.80;4.30;;;2.10;99.90;;;;;;4976569;28;20088;-59
2021/01/24 07:36:50;;;;;;;8.95;5.45;;;2.10;99.90;;;;;;4975416;28;20026;-59
2021/01/24 07:39:16;;;;;;;5.68;3.95;;;2.10;99.90;;;;;;4995671;28;20499;-58
2021/01/24 07:41:43;;;;;;;6.72;3.80;;;2.10;99.90;;;;;;4979948;28;20480;-61
2021/01/24 07:44:09;;;;;;;6.88;4.18;;;2.10;99.90;;;;;;4981767;28;20062;-59
2021/01/24 07:46:35;;;;;;;5.72;4.03;;;2.10;99.90;;;;;;4998710;28;20476;-58
2021/01/24 07:49:01;;;;;;;5.88;3.33;;;2.10;99.90;;;;;;4998081;28;20049;-60
2021/01/24 07:51:27;;;;;;;5.10;3.60;;;2.00;99.90;;;;;;4981261;28;20022;-66
2021/01/24 07:53:53;;;;;;;5.57;3.88;;;2.00;99.90;;;;;;4998171;28;20054;-59
2021/01/24 07:56:19;;;;;;;4.75;3.67;;;2.00;99.90;;;;;;4997219;28;20030;-61
2021/01/24 07:58:46;;;;;;;5.90;3.60;;;1.90;99.90;;;;;;5008564;28;20030;-59
2021/01/24 08:01:14;;;;;;;7.00;3.95;;;2.00;99.90;;;;;;5018594;28;20026;-59
2021/01/24 08:03:43;;;;;;;4.03;2.95;;;2.00;99.90;;;;;;4999163;28;20475;-59
2021/01/24 08:06:11;;;;;;;5.03;3.50;;;2.00;99.90;;;;;;4999027;28;20084;-58
2021/01/24 08:08:41;;;;;;;4.70;3.03;;;2.00;99.90;;;;;;4998135;28;20054;-59
2021/01/24 08:11:07;;;;;;;6.57;3.63;;;1.80;99.90;;;;;;4984636;28;20061;-60
2021/01/24 08:13:35;;;;;;;7.07;4.20;;;2.00;99.90;;;;;;5016965;28;20026;-59
2021/01/24 08:16:10;;;;;;;4.88;3.35;;;2.10;99.90;;;;;;5016929;28;20052;-60
2021/01/24 08:18:39;;;;;;;4.47;3.25;;;2.00;99.90;;;;;;4999802;28;20549;-60
2021/01/24 08:21:06;;;;;;;7.82;3.63;;;2.00;99.90;;;;;;5018263;28;20033;-58
2021/01/24 08:23:31;;;;;;;4.35;3.17;;;2.00;99.90;;;;;;5015340;28;20061;-61
2021/01/24 08:25:58;;;;;;;3.22;2.47;;;2.10;99.90;;;;;;5016790;28;20116;-60
2021/01/24 08:28:27;;;;;;;3.65;3.15;;;2.10;99.90;;;;;;5015678;28;20044;-59
2021/01/24 08:30:58;;;;;;;5.45;3.00;;;2.00;99.90;;;;;;5015997;28;20034;-59
2021/01/24 08:33:24;;;;;;;6.65;2.70;;;1.90;99.90;;;;;;4998704;28;20376;-58
2021/01/24 08:35:50;;;;;;;3.75;2.95;;;2.00;99.90;;;;;;4982516;28;20041;-61
2021/01/24 08:38:17;;;;;;;4.25;3.15;;;1.90;99.90;;;;;;4999790;28;20026;-64
2021/01/24 08:40:44;;;;;;;3.72;2.92;;;1.90;99.90;;;;;;4998834;28;20030;-59
2021/01/24 08:43:10;;;;;;;4.60;2.85;;;1.80;99.90;;;;;;5016308;28;20464;-62
2021/01/24 08:45:36;;;;;;;4.72;3.25;;;1.90;99.90;;;;;;4999418;28;20030;-59
2021/01/24 08:48:04;;;;;;;3.35;3.00;;;1.90;99.90;;;;;;5000129;28;20026;-59
2021/01/24 08:50:35;;;;;;;3.78;2.75;;;1.90;99.90;;;;;;4998725;28;20033;-69
2021/01/24 08:53:04;;;;;;;5.03;3.53;;;2.00;99.90;;;;;;5001002;28;20041;-60
2021/01/24 08:55:44;;;;;;;3.70;3.20;;;2.00;99.90;;;;;;5000537;28;20032;-65
2021/01/24 08:58:26;;;;;;;3.88;2.80;;;2.00;99.90;;;;;;5017123;28;20104;-58
2021/01/24 09:01:05;;;;;;;8.80;3.75;;;2.10;99.90;;;;;;4982332;28;20121;-58
2021/01/24 09:03:31;;;;;;;4.90;3.20;;;2.00;99.90;;;;;;5015430;28;20030;-66
2021/01/24 09:06:32;;;;;;;4.10;3.00;;;2.00;99.90;;;;;;5016330;28;20037;-61
2021/01/24 09:08:59;;;;;;;7.55;2.80;;;2.10;99.90;;;;;;4958781;28;20054;-61
2021/01/24 09:11:25;;;;;;;4.25;2.88;;;2.00;99.90;;;;;;5008970;28;20037;-60
2021/01/24 09:13:50;;;;;;;3.97;3.13;;;2.00;99.90;;;;;;4999019;28;20494;-70
2021/01/24 09:16:20;;;;;;;3.33;2.85;;;2.10;99.90;;;;;;5000359;28;20021;-63
2021/01/24 09:18:46;;;;;;;4.60;3.00;;;2.00;99.90;;;;;;5015171;28;20484;-59
2021/01/24 09:21:11;;;;;;;3.42;2.60;;;2.00;99.90;;;;;;4998309;28;20041;-59
2021/01/24 09:23:37;;;;;;;3.90;3.00;;;2.00;99.90;;;;;;5014756;28;20038;-62
2021/01/24 09:26:03;;;;;;;3.42;2.30;;;1.90;99.90;;;;;;4999072;28;20122;-64
2021/01/24 09:28:28;;;;;;;3.72;2.72;;;1.90;99.90;;;;;;4999349;28;20030;-61
2021/01/24 09:30:54;;;;;;;4.18;2.72;;;2.00;99.90;;;;;;5016582;28;20026;-59
2021/01/24 09:33:21;;;;;;;3.13;1.88;;;2.00;99.90;;;;;;5017689;28;20025;-59
2021/01/24 09:35:47;;;;;;;4.05;2.50;;;2.10;99.90;;;;;;4998291;28;20038;-59
2021/01/24 09:38:12;;;;;;;1.90;1.73;;;2.20;99.90;;;;;;5017125;28;20441;-59
2021/01/24 09:40:38;;;;;;;3.22;2.47;;;2.10;99.90;;;;;;4998273;28;20433;-60
2021/01/24 09:43:04;;;;;;;2.85;2.20;;;2.10;99.90;;;;;;5017087;28;20490;-62
2021/01/24 09:45:30;;;;;;;3.78;1.92;;;2.20;99.90;;;;;;5015848;28;20030;-64
2021/01/24 09:47:56;;;;;;;3.30;2.20;;;2.20;99.90;;;;;;5014657;28;20026;-63
2021/01/24 09:50:23;;;;;;;2.42;1.92;;;2.20;99.90;;;;;;5014759;28;20045;-67
2021/01/24 09:52:50;;;;;;;2.75;1.63;;;2.30;99.90;;;;;;4996748;28;20476;-61
2021/01/24 09:55:16;;;;;;;3.03;2.25;;;2.30;99.90;;;;;;5017160;28;20048;-59
2021/01/24 09:57:42;;;;;;;2.78;2.08;;;2.30;99.90;;;;;;5033189;28;20056;-60
2021/01/24 10:00:09;;;;;;;2.40;1.90;;;2.30;99.90;;;;;;5033208;28;20060;-61
2021/01/24 10:02:34;;;;;;;1.92;1.60;;;2.40;99.90;;;;;;5032160;28;20093;-67
2021/01/24 10:05:00;;;;;;;2.58;1.80;;;2.40;99.90;;;;;;5034328;28;20029;-62
2021/01/24 10:07:26;;;;;;;2.10;1.63;;;2.50;99.90;;;;;;5034486;28;20029;-62
2021/01/24 10:09:53;;;;;;;4.30;2.08;;;2.50;99.90;;;;;;5015538;28;20092;-59
2021/01/24 10:12:57;;;;;;;3.25;1.70;;;2.50;99.90;;;;;;5109115;27;851356;-63
2021/01/24 10:15:22;;;;;;;3.50;2.10;;;2.50;99.90;;;;;;5110666;28;20114;-67
2021/01/24 10:17:48;;;;;;;2.60;2.15;;;2.50;99.90;;;;;;5110652;28;20030;-61
2021/01/24 10:20:14;;;;;;;2.25;1.60;;;2.50;99.90;;;;;;5111801;28;20027;-61
2021/01/24 10:22:40;;;;;;;2.58;1.85;;;2.50;99.90;;;;;;5110737;28;20032;-61
2021/01/24 10:25:06;;;;;;;1.88;1.65;;;2.60;99.90;;;;;;5111611;28;20031;-59
2021/01/24 10:27:32;;;;;;;2.70;1.60;;;2.60;99.90;;;;;;5110667;28;20089;-61
2021/01/24 10:29:58;;;;;;;3.53;1.30;;;2.60;99.90;;;;;;5110810;28;20036;-62
2021/01/24 10:32:24;;;;;;;3.97;1.85;;;2.60;99.90;;;;;;5109697;28;20063;-62
2021/01/24 10:34:49;;;;;;;2.60;1.95;;;4.40;99.90;;;;;;5108099;28;20047;-65
2021/01/24 10:37:15;;;;;;;4.90;1.70;;;3.50;99.90;;;;;;5110431;28;20446;-61
2021/01/24 10:39:41;;;;;;;1.52;1.20;;;3.20;99.90;;;;;;5109811;28;20019;-62
2021/01/24 10:42:07;;;;;;;3.33;1.60;;;3.00;99.90;;;;;;5110301;28;20046;-61
2021/01/24 10:44:33;;;;;;;2.15;1.60;;;2.90;99.90;;;;;;5109404;28;20126;-61
2021/01/24 10:46:59;;;;;;;2.33;1.83;;;3.00;99.90;;;;;;5108599;28;20032;-61
2021/01/24 10:49:25;;;;;;;1.52;1.13;;;2.90;99.90;;;;;;5110003;28;20031;-60
2021/01/24 10:51:52;;;;;;;1.58;1.10;;;2.80;99.90;;;;;;5109610;28;20020;-61
2021/01/24 10:54:18;;;;;;;2.35;1.30;;;2.90;99.90;;;;;;5110734;28;20039;-61
2021/01/24 10:56:44;;;;;;;1.75;1.17;;;3.00;99.90;;;;;;5108322;28;20051;-63
2021/01/24 10:59:10;;;;;;;1.13;0.90;;;2.90;99.90;;;;;;5112417;28;20457;-61
2021/01/24 11:01:36;;;;;;;1.20;1.00;;;2.90;99.90;;;;;;5116863;28;20030;-68
2021/01/24 11:04:02;;;;;;;1.65;1.35;;;3.00;99.90;;;;;;5119889;28;20057;-61
2021/01/24 11:06:28;;;;;;;1.77;1.25;;;3.10;99.90;;;;;;5118064;28;20027;-61
2021/01/24 11:08:54;;;;;;;1.73;1.00;;;3.20;99.90;;;;;;5115171;28;20024;-61
2021/01/24 11:11:22;;;;;;;3.53;1.60;;;3.20;99.90;;;;;;5121168;28;20525;-60
2021/01/24 11:13:48;;;;;;;1.85;1.17;;;3.30;99.90;;;;;;5105911;28;20035;-61
2021/01/24 11:16:14;;;;;;;2.15;1.15;;;3.30;99.90;;;;;;5104296;28;20457;-72
2021/01/24 11:18:40;;;;;;;3.70;1.30;;;3.30;99.90;;;;;;5110164;28;20032;-71
2021/01/24 11:21:06;;;;;;;6.15;1.40;;;3.90;99.90;;;;;;5109960;28;20028;-70
2021/01/24 11:23:32;;;;;;;1.85;1.27;;;4.40;99.90;;;;;;5100936;28;20362;-69
2021/01/24 11:25:58;;;;;;;1.33;1.13;;;4.70;99.90;;;;;;5094709;28;20028;-61
2021/01/24 11:28:24;;;;;;;1.42;0.93;;;4.50;99.90;;;;;;5093789;28;20026;-62
2021/01/24 11:30:50;;;;;;;5.43;1.92;;;4.30;99.90;;;;;;5094375;28;20024;-62
2021/01/24 11:33:16;;;;;;;2.20;1.00;;;6.00;99.90;;;;;;5094540;28;20404;-67
2021/01/24 11:35:41;;;;;;;4.47;1.27;;;5.20;99.90;;;;;;5092662;28;20031;-62
2021/01/24 11:38:07;;;;;;;1.55;1.45;;;4.80;99.90;;;;;;5095007;28;20024;-61
2021/01/24 11:40:32;;;;;;;4.45;1.35;;;4.30;99.90;;;;;;5092077;28;20020;-61
2021/01/24 11:42:58;;;;;;;1.77;1.45;;;4.10;99.90;;;;;;5093830;28;20028;-62
2021/01/24 11:45:24;;;;;;;2.40;1.52;;;3.90;99.90;;;;;;5094977;28;20050;-63
2021/01/24 11:47:55;;;;;;;2.85;1.70;;;3.80;99.90;;;;;;5094017;28;20115;-62
2021/01/24 11:50:21;;;;;;;2.75;2.03;;;3.80;99.90;;;;;;5096269;28;20078;-63
2021/01/24 11:52:50;;;;;;;1.70;1.60;;;3.70;99.90;;;;;;5096058;28;20032;-64
2021/01/24 11:55:16;;;;;;;2.88;2.00;;;3.70;99.90;;;;;;5092603;28;20084;-62
2021/01/24 11:57:42;;;;;;;3.17;2.38;;;3.80;99.90;;;;;;5091155;28;20149;-65
2021/01/24 12:00:08;;;;;;;3.15;2.20;;;3.70;99.90;;;;;;5095616;28;20463;-61
2021/01/24 12:02:34;;;;;;;2.00;1.77;;;3.70;99.90;;;;;;5094179;28;20067;-61
2021/01/24 12:05:00;;;;;;;2.55;1.70;;;3.80;99.90;;;;;;5093520;28;20054;-60
2021/01/24 12:07:26;;;;;;;3.33;2.60;;;3.80;99.90;;;;;;5089433;28;20028;-61
2021/01/24 12:09:53;;;;;;;5.35;2.40;;;3.80;99.90;;;;;;5092712;28;20024;-62
2021/01/24 12:12:21;;;;;;;5.38;3.20;;;3.70;99.90;;;;;;5095091;28;20385;-63
2021/01/24 12:14:47;;;;;;;2.95;2.65;;;3.80;99.90;;;;;;5094129;28;20169;-63
2021/01/24 12:17:12;;;;;;;3.75;2.60;;;3.80;99.90;;;;;;5094213;28;20055;-62
2021/01/24 12:19:41;;;;;;;3.55;2.15;;;3.90;99.90;;;;;;5093865;28;20112;-61
2021/01/24 12:22:07;;;;;;;7.93;3.17;;;3.80;99.90;;;;;;5092509;28;20028;-61
2021/01/24 12:24:33;;;;;;;6.45;3.35;;;3.90;99.90;;;;;;5093611;28;20351;-61
2021/01/24 12:26:58;;;;;;;5.93;4.25;;;4.30;99.90;;;;;;5095687;28;20020;-61
2021/01/24 12:29:24;;;;;;;5.80;2.85;;;4.20;99.90;;;;;;5095256;28;20105;-61
2021/01/24 12:31:50;;;;;;;5.85;3.50;;;4.00;99.90;;;;;;5094213;28;20025;-63
2021/01/24 12:34:15;;;;;;;6.70;3.97;;;5.10;99.90;;;;;;5090905;28;20025;-62
2021/01/24 12:36:41;;;;;;;112.85;69.47;;;4.70;99.90;;;;;;5062047;28;20024;-67
2021/01/24 12:39:07;;;;;;;38.72;23.35;;;5.20;99.90;;;;;;5086374;28;20024;-62
2021/01/24 12:41:33;;;;;;;97.95;58.45;;;4.90;99.90;;;;;;5092904;28;20036;-64
2021/01/24 12:43:59;;;;;;;29.73;20.67;;;4.80;99.90;;;;;;5093137;28;20028;-62
2021/01/24 12:46:24;;;;;;;3.60;3.10;;;4.90;99.90;;;;;;5092622;28;20028;-62
2021/01/24 12:48:50;;;;;;;2.80;2.45;;;4.80;99.90;;;;;;5093061;28;20020;-61
2021/01/24 12:51:16;;;;;;;4.70;3.28;;;4.50;99.90;;;;;;5078911;28;20086;-59
2021/01/24 12:53:41;;;;;;;4.90;3.38;;;4.50;99.90;;;;;;5073736;28;20033;-71
2021/01/24 12:56:07;;;;;;;4.35;3.35;;;4.40;99.90;;;;;;5073422;28;20552;-62
2021/01/24 12:58:33;;;;;;;5.47;3.70;;;4.50;99.90;;;;;;5083629;28;20372;-62
2021/01/24 13:01:01;;;;;;;4.32;3.58;;;4.40;99.90;;;;;;5092405;28;20032;-65